Impacts TAF Board
For situational awareness. Not to be used for flight planning purposes.
IDs:

KSFO - San Francisco Intl, CA, US

Issued at 2058 UTC 02 Oct 2022
Updated at 2148 UTC 02 Oct 2022
Potential Impact None Slight Moderate High
Time<<03/10Z 03/11Z 03/12Z 03/13Z 03/14Z 03/15Z 03/16Z 03/17Z 03/18Z 03/19Z 03/20Z 03/21Z 03/22Z>>
Type PRVL PRVL PRVL PRVL PRVL PRVL PRVL PRVL PRVL PRVL PRVL PRVL PRVL
VIS >6 >6 >6 >6 >6 >6 >6 >6 >6 >6 >6 >6 >6
CIG 12 12 12 12 12 12 12 12 -- -- -- -- --
Cover OVC OVC OVC OVC OVC OVC OVC OVC FEW FEW FEW FEW FEW
FltCat MVFR MVFR MVFR MVFR MVFR MVFR MVFR MVFR VFR VFR VFR VFR VFR
WX -- -- -- -- -- -- -- -- -- -- -- -- --
WDir 260 260 260 260 260 260 260 260 290 290 290 290 290
WSpd 5 5 5 5 5 5 5 5 14 14 14 14 14
WGst -- -- -- -- -- -- -- -- -- -- -- -- --
WSHgt -- -- -- -- -- -- -- -- -- -- -- -- --
WSDir -- -- -- -- -- -- -- -- -- -- -- -- --
WSSpd -- -- -- -- -- -- -- -- -- -- -- -- --
Raw TAF
KSFO 022058Z 0221/0324 30017KT P6SM FEW030
  FM030300 28007KT P6SM FEW020
  FM030900 26005KT P6SM OVC012
  FM031800 29014KT P6SM FEW010


METAR Board
Radar Display
Forecast Discussion
For situational awareness. Not to be used for flight planning purposes.